首页
METAR-TAF:

METAR-TAF

机场 :

迪拜国际机场

杜拜, 阿拉伯联合酋长国

纬度: 25-15-10N, 经度: 055-21-52E, 海拔: 8米

当前天气观测

该预报发布于57分钟前的07:00 UTC
风速7节,风向东转东南,在南转南东之间变化
温度 34°C
湿度 26%
气压 1011 hPa
能见度10公里或以上
1500米以下无云,无积雨云

METAR: OMDB 030700Z 12007KT 090V150 CAVOK 34/12 Q1011 NOSIG

时间: 11:57 (07:57 UTC)

预报

该预报发布于3小时和6分钟前的04:51 UTC
预报有效从03日的 06点(UTC)到 04日的 12点(UTC)
风速5节,风向东转东南
能見度: 8000
成为
从 03日的 08点(UTC)到 03日的 10点(UTC)
风速13节,风向北转西北
成为
从 03日的 16点(UTC)到 03日的 18点(UTC)
风速7节,风向
成为
从 04日的 04点(UTC)到 04日的 06点(UTC)
风速10节,风向
成为
从 04日的 09点(UTC)到 04日的 11点(UTC)
风速12节,风向北转西北

TAF: OMDB 030451Z 0306/0412 11005KT 8000 NSC BECMG 0308/0310 33013KT BECMG 0316/0318 09007KT BECMG 0404/0406 18010KT BECMG 0409/0411 34012KT

超过4000个机场的气象观测和天气预报(METAR&TAF报告)。

可查询的气象台以黄色和红色小点在地图上表示。

将鼠标移到小点上方,可查看气象台名称。

然后点击查看天气观测和预报。

如需切换地图:点击带黑十字的绿色按钮放大地图;点击带横线的绿色按钮缩小地图;或者点击绿色箭头查看邻近地区的地图。


METAR-TAF: